sensor_id;sensor_type;location;lat;lon;timestamp;P1;durP1;ratioP1;P2;durP2;ratioP2
19521;SDS011;9905;52.126;5.596;2022-08-25T00:01:20;5.88;;;5.57;;
19521;SDS011;9905;52.126;5.596;2022-08-25T00:03:48;6.40;;;5.90;;
19521;SDS011;9905;52.126;5.596;2022-08-25T00:06:17;5.80;;;5.43;;
19521;SDS011;9905;52.126;5.596;2022-08-25T00:08:45;5.68;;;5.43;;
19521;SDS011;9905;52.126;5.596;2022-08-25T00:11:13;5.93;;;5.50;;
19521;SDS011;9905;52.126;5.596;2022-08-25T00:13:42;6.50;;;6.10;;
19521;SDS011;9905;52.126;5.596;2022-08-25T00:16:10;6.00;;;5.60;;
19521;SDS011;9905;52.126;5.596;2022-08-25T00:18:40;5.90;;;5.50;;
19521;SDS011;9905;52.126;5.596;2022-08-25T00:21:09;6.20;;;5.70;;
19521;SDS011;9905;52.126;5.596;2022-08-25T00:23:36;6.05;;;5.75;;
19521;SDS011;9905;52.126;5.596;2022-08-25T00:26:04;6.65;;;6.07;;
19521;SDS011;9905;52.126;5.596;2022-08-25T00:28:31;5.78;;;5.55;;
19521;SDS011;9905;52.126;5.596;2022-08-25T00:30:58;5.82;;;5.53;;
19521;SDS011;9905;52.126;5.596;2022-08-25T00:33:25;6.30;;;5.82;;
19521;SDS011;9905;52.126;5.596;2022-08-25T00:35:53;6.78;;;6.38;;
19521;SDS011;9905;52.126;5.596;2022-08-25T00:38:20;5.95;;;5.65;;
19521;SDS011;9905;52.126;5.596;2022-08-25T00:40:47;6.57;;;6.18;;
19521;SDS011;9905;52.126;5.596;2022-08-25T00:43:31;6.65;;;6.15;;
19521;SDS011;9905;52.126;5.596;2022-08-25T00:46:00;6.45;;;6.05;;
19521;SDS011;9905;52.126;5.596;2022-08-25T00:48:27;6.38;;;5.97;;
19521;SDS011;9905;52.126;5.596;2022-08-25T00:50:55;5.82;;;5.53;;
19521;SDS011;9905;52.126;5.596;2022-08-25T00:53:22;6.93;;;6.38;;
19521;SDS011;9905;52.126;5.596;2022-08-25T00:55:48;6.32;;;5.95;;
19521;SDS011;9905;52.126;5.596;2022-08-25T00:58:17;6.35;;;6.05;;
19521;SDS011;9905;52.126;5.596;2022-08-25T01:00:49;7.60;;;7.10;;
19521;SDS011;9905;52.126;5.596;2022-08-25T01:03:18;6.40;;;6.00;;
19521;SDS011;9905;52.126;5.596;2022-08-25T01:05:46;6.90;;;6.50;;
19521;SDS011;9905;52.126;5.596;2022-08-25T01:08:14;7.00;;;6.60;;
19521;SDS011;9905;52.126;5.596;2022-08-25T01:10:45;7.30;;;6.75;;
19521;SDS011;9905;52.126;5.596;2022-08-25T01:13:25;7.97;;;7.57;;
19521;SDS011;9905;52.126;5.596;2022-08-25T01:15:56;8.07;;;7.20;;
19521;SDS011;9905;52.126;5.596;2022-08-25T01:18:26;7.13;;;6.78;;
19521;SDS011;9905;52.126;5.596;2022-08-25T01:20:55;7.47;;;7.07;;
19521;SDS011;9905;52.126;5.596;2022-08-25T01:23:23;7.85;;;7.45;;
19521;SDS011;9905;52.126;5.596;2022-08-25T01:25:51;7.95;;;7.45;;
19521;SDS011;9905;52.126;5.596;2022-08-25T01:28:23;8.82;;;8.23;;
19521;SDS011;9905;52.126;5.596;2022-08-25T01:30:50;8.10;;;7.50;;
19521;SDS011;9905;52.126;5.596;2022-08-25T01:33:17;8.90;;;8.32;;
19521;SDS011;9905;52.126;5.596;2022-08-25T01:35:44;8.80;;;8.30;;
19521;SDS011;9905;52.126;5.596;2022-08-25T01:38:14;9.27;;;8.73;;
19521;SDS011;9905;52.126;5.596;2022-08-25T01:40:41;8.38;;;7.85;;
19521;SDS011;9905;52.126;5.596;2022-08-25T01:43:11;8.93;;;8.43;;
19521;SDS011;9905;52.126;5.596;2022-08-25T01:45:46;8.63;;;8.05;;
19521;SDS011;9905;52.126;5.596;2022-08-25T01:48:14;9.00;;;8.50;;
19521;SDS011;9905;52.126;5.596;2022-08-25T01:50:41;8.95;;;8.45;;
19521;SDS011;9905;52.126;5.596;2022-08-25T01:53:11;9.43;;;8.80;;
19521;SDS011;9905;52.126;5.596;2022-08-25T01:55:44;9.85;;;9.07;;
19521;SDS011;9905;52.126;5.596;2022-08-25T01:58:18;9.75;;;9.15;;
19521;SDS011;9905;52.126;5.596;2022-08-25T02:00:46;9.13;;;8.45;;
19521;SDS011;9905;52.126;5.596;2022-08-25T02:03:13;9.88;;;9.02;;
19521;SDS011;9905;52.126;5.596;2022-08-25T02:05:40;9.00;;;8.45;;
19521;SDS011;9905;52.126;5.596;2022-08-25T02:08:07;9.75;;;9.23;;
19521;SDS011;9905;52.126;5.596;2022-08-25T02:10:35;9.40;;;8.88;;
19521;SDS011;9905;52.126;5.596;2022-08-25T02:13:03;8.88;;;8.38;;
19521;SDS011;9905;52.126;5.596;2022-08-25T02:15:30;9.10;;;8.50;;
19521;SDS011;9905;52.126;5.596;2022-08-25T02:17:57;9.25;;;8.65;;
19521;SDS011;9905;52.126;5.596;2022-08-25T02:20:24;8.85;;;8.25;;
19521;SDS011;9905;52.126;5.596;2022-08-25T02:22:52;9.10;;;8.60;;
19521;SDS011;9905;52.126;5.596;2022-08-25T02:25:19;8.80;;;8.20;;
19521;SDS011;9905;52.126;5.596;2022-08-25T02:27:47;9.10;;;8.18;;
19521;SDS011;9905;52.126;5.596;2022-08-25T02:30:14;8.98;;;8.40;;
19521;SDS011;9905;52.126;5.596;2022-08-25T02:32:42;8.57;;;7.65;;
19521;SDS011;9905;52.126;5.596;2022-08-25T02:35:09;8.05;;;7.55;;
19521;SDS011;9905;52.126;5.596;2022-08-25T02:37:36;8.52;;;7.85;;
19521;SDS011;9905;52.126;5.596;2022-08-25T02:40:03;8.07;;;7.47;;
19521;SDS011;9905;52.126;5.596;2022-08-25T02:42:31;7.95;;;7.47;;
19521;SDS011;9905;52.126;5.596;2022-08-25T02:44:59;7.40;;;6.93;;
19521;SDS011;9905;52.126;5.596;2022-08-25T02:47:26;6.60;;;6.30;;
19521;SDS011;9905;52.126;5.596;2022-08-25T02:49:53;7.00;;;6.60;;
19521;SDS011;9905;52.126;5.596;2022-08-25T02:52:20;6.90;;;6.28;;
19521;SDS011;9905;52.126;5.596;2022-08-25T02:54:47;6.53;;;6.20;;
19521;SDS011;9905;52.126;5.596;2022-08-25T02:57:14;6.65;;;6.15;;
19521;SDS011;9905;52.126;5.596;2022-08-25T02:59:41;6.70;;;6.40;;
19521;SDS011;9905;52.126;5.596;2022-08-25T03:02:12;6.93;;;6.43;;
19521;SDS011;9905;52.126;5.596;2022-08-25T03:04:39;6.78;;;6.40;;
19521;SDS011;9905;52.126;5.596;2022-08-25T03:07:06;6.75;;;6.15;;
19521;SDS011;9905;52.126;5.596;2022-08-25T03:09:33;6.93;;;6.53;;
19521;SDS011;9905;52.126;5.596;2022-08-25T03:12:00;6.05;;;5.55;;
19521;SDS011;9905;52.126;5.596;2022-08-25T03:14:27;6.13;;;5.53;;
19521;SDS011;9905;52.126;5.596;2022-08-25T03:16:54;6.20;;;5.78;;
19521;SDS011;9905;52.126;5.596;2022-08-25T03:19:22;5.50;;;5.20;;
19521;SDS011;9905;52.126;5.596;2022-08-25T03:21:49;6.10;;;5.70;;
19521;SDS011;9905;52.126;5.596;2022-08-25T03:24:16;5.43;;;4.95;;
19521;SDS011;9905;52.126;5.596;2022-08-25T03:26:43;5.75;;;5.35;;
19521;SDS011;9905;52.126;5.596;2022-08-25T03:29:17;6.03;;;5.70;;
19521;SDS011;9905;52.126;5.596;2022-08-25T03:31:44;5.80;;;5.40;;
19521;SDS011;9905;52.126;5.596;2022-08-25T03:34:11;5.80;;;5.40;;
19521;SDS011;9905;52.126;5.596;2022-08-25T03:36:42;5.93;;;5.32;;
19521;SDS011;9905;52.126;5.596;2022-08-25T03:39:09;5.85;;;5.20;;
19521;SDS011;9905;52.126;5.596;2022-08-25T03:41:36;5.70;;;5.30;;
19521;SDS011;9905;52.126;5.596;2022-08-25T03:44:04;5.40;;;5.07;;
19521;SDS011;9905;52.126;5.596;2022-08-25T03:46:34;5.55;;;5.25;;
19521;SDS011;9905;52.126;5.596;2022-08-25T03:49:04;5.30;;;5.00;;
19521;SDS011;9905;52.126;5.596;2022-08-25T03:51:33;5.28;;;5.03;;
19521;SDS011;9905;52.126;5.596;2022-08-25T03:54:02;5.45;;;5.10;;
19521;SDS011;9905;52.126;5.596;2022-08-25T03:56:30;5.03;;;4.55;;
19521;SDS011;9905;52.126;5.596;2022-08-25T03:58:57;5.45;;;5.05;;
19521;SDS011;9905;52.126;5.596;2022-08-25T04:01:24;6.15;;;5.65;;
19521;SDS011;9905;52.126;5.596;2022-08-25T04:03:51;6.88;;;5.50;;
19521;SDS011;9905;52.126;5.596;2022-08-25T04:06:18;5.55;;;5.25;;
19521;SDS011;9905;52.126;5.596;2022-08-25T04:08:45;5.57;;;5.18;;
19521;SDS011;9905;52.126;5.596;2022-08-25T04:11:15;5.68;;;5.38;;
19521;SDS011;9905;52.126;5.596;2022-08-25T04:13:43;5.85;;;5.30;;
19521;SDS011;9905;52.126;5.596;2022-08-25T04:16:11;5.85;;;5.32;;
19521;SDS011;9905;52.126;5.596;2022-08-25T04:18:39;5.22;;;4.82;;
19521;SDS011;9905;52.126;5.596;2022-08-25T04:21:07;5.25;;;4.95;;
19521;SDS011;9905;52.126;5.596;2022-08-25T04:23:35;5.65;;;5.18;;
19521;SDS011;9905;52.126;5.596;2022-08-25T04:26:07;5.43;;;5.03;;
19521;SDS011;9905;52.126;5.596;2022-08-25T04:28:36;5.45;;;5.05;;
19521;SDS011;9905;52.126;5.596;2022-08-25T04:31:04;7.65;;;5.45;;
19521;SDS011;9905;52.126;5.596;2022-08-25T04:33:32;5.93;;;5.53;;
19521;SDS011;9905;52.126;5.596;2022-08-25T04:35:58;5.80;;;5.45;;
19521;SDS011;9905;52.126;5.596;2022-08-25T04:38:25;6.47;;;5.75;;
19521;SDS011;9905;52.126;5.596;2022-08-25T04:40:54;6.05;;;5.50;;
19521;SDS011;9905;52.126;5.596;2022-08-25T04:43:22;6.53;;;6.10;;
19521;SDS011;9905;52.126;5.596;2022-08-25T04:45:50;6.40;;;5.93;;
19521;SDS011;9905;52.126;5.596;2022-08-25T04:48:17;5.65;;;5.35;;
19521;SDS011;9905;52.126;5.596;2022-08-25T04:50:43;6.05;;;5.65;;
19521;SDS011;9905;52.126;5.596;2022-08-25T04:53:10;6.57;;;6.00;;
19521;SDS011;9905;52.126;5.596;2022-08-25T04:55:38;6.43;;;5.80;;
19521;SDS011;9905;52.126;5.596;2022-08-25T04:58:06;5.78;;;5.47;;
19521;SDS011;9905;52.126;5.596;2022-08-25T05:00:33;8.35;;;5.75;;
19521;SDS011;9905;52.126;5.596;2022-08-25T05:03:01;5.78;;;5.43;;
19521;SDS011;9905;52.126;5.596;2022-08-25T05:05:28;6.22;;;5.57;;
19521;SDS011;9905;52.126;5.596;2022-08-25T05:07:55;6.13;;;5.60;;
19521;SDS011;9905;52.126;5.596;2022-08-25T05:10:23;6.20;;;5.80;;
19521;SDS011;9905;52.126;5.596;2022-08-25T05:12:50;6.28;;;5.97;;
19521;SDS011;9905;52.126;5.596;2022-08-25T05:15:17;7.10;;;6.60;;
19521;SDS011;9905;52.126;5.596;2022-08-25T05:18:02;5.53;;;5.22;;
19521;SDS011;9905;52.126;5.596;2022-08-25T05:20:29;6.10;;;5.65;;
19521;SDS011;9905;52.126;5.596;2022-08-25T05:22:56;8.05;;;5.85;;
19521;SDS011;9905;52.126;5.596;2022-08-25T05:25:23;7.28;;;6.50;;
19521;SDS011;9905;52.126;5.596;2022-08-25T05:27:49;6.13;;;5.78;;
19521;SDS011;9905;52.126;5.596;2022-08-25T05:30:16;6.10;;;5.60;;
19521;SDS011;9905;52.126;5.596;2022-08-25T05:32:43;7.85;;;6.75;;
19521;SDS011;9905;52.126;5.596;2022-08-25T05:35:11;7.78;;;5.65;;
19521;SDS011;9905;52.126;5.596;2022-08-25T05:37:38;6.88;;;6.20;;
19521;SDS011;9905;52.126;5.596;2022-08-25T05:40:05;8.30;;;6.55;;
19521;SDS011;9905;52.126;5.596;2022-08-25T05:42:32;7.30;;;6.60;;
19521;SDS011;9905;52.126;5.596;2022-08-25T05:44:59;6.97;;;6.03;;
19521;SDS011;9905;52.126;5.596;2022-08-25T05:47:26;6.15;;;5.65;;
19521;SDS011;9905;52.126;5.596;2022-08-25T05:49:53;6.15;;;5.60;;
19521;SDS011;9905;52.126;5.596;2022-08-25T05:52:21;6.35;;;5.80;;
19521;SDS011;9905;52.126;5.596;2022-08-25T05:54:48;5.68;;;5.38;;
19521;SDS011;9905;52.126;5.596;2022-08-25T05:57:15;6.35;;;5.80;;
19521;SDS011;9905;52.126;5.596;2022-08-25T05:59:41;5.55;;;5.15;;
19521;SDS011;9905;52.126;5.596;2022-08-25T06:02:08;5.97;;;5.50;;
19521;SDS011;9905;52.126;5.596;2022-08-25T06:04:52;6.20;;;5.60;;
19521;SDS011;9905;52.126;5.596;2022-08-25T06:07:18;6.07;;;5.68;;
19521;SDS011;9905;52.126;5.596;2022-08-25T06:09:46;5.70;;;5.30;;
19521;SDS011;9905;52.126;5.596;2022-08-25T06:12:14;6.07;;;5.53;;
19521;SDS011;9905;52.126;5.596;2022-08-25T06:14:41;6.03;;;5.45;;
19521;SDS011;9905;52.126;5.596;2022-08-25T06:17:08;6.28;;;5.65;;
19521;SDS011;9905;52.126;5.596;2022-08-25T06:19:35;6.45;;;5.40;;
19521;SDS011;9905;52.126;5.596;2022-08-25T06:22:02;5.30;;;5.00;;
19521;SDS011;9905;52.126;5.596;2022-08-25T06:24:29;5.00;;;4.80;;
19521;SDS011;9905;52.126;5.596;2022-08-25T06:26:58;6.13;;;5.63;;
19521;SDS011;9905;52.126;5.596;2022-08-25T06:29:25;7.57;;;5.45;;
19521;SDS011;9905;52.126;5.596;2022-08-25T06:31:52;6.43;;;5.13;;
19521;SDS011;9905;52.126;5.596;2022-08-25T06:34:18;5.60;;;5.10;;
19521;SDS011;9905;52.126;5.596;2022-08-25T06:36:45;5.95;;;5.47;;
19521;SDS011;9905;52.126;5.596;2022-08-25T06:39:12;7.38;;;6.30;;
19521;SDS011;9905;52.126;5.596;2022-08-25T06:41:39;5.60;;;4.97;;
19521;SDS011;9905;52.126;5.596;2022-08-25T06:44:07;5.22;;;4.80;;
19521;SDS011;9905;52.126;5.596;2022-08-25T06:46:35;5.13;;;4.75;;
19521;SDS011;9905;52.126;5.596;2022-08-25T06:49:02;5.72;;;5.32;;
19521;SDS011;9905;52.126;5.596;2022-08-25T06:51:29;5.32;;;4.80;;
19521;SDS011;9905;52.126;5.596;2022-08-25T06:53:56;7.43;;;6.88;;
19521;SDS011;9905;52.126;5.596;2022-08-25T06:56:23;5.93;;;5.43;;
19521;SDS011;9905;52.126;5.596;2022-08-25T06:58:49;5.85;;;5.38;;
19521;SDS011;9905;52.126;5.596;2022-08-25T07:01:18;8.38;;;5.03;;
19521;SDS011;9905;52.126;5.596;2022-08-25T07:03:48;5.05;;;4.63;;
19521;SDS011;9905;52.126;5.596;2022-08-25T07:06:15;6.00;;;4.43;;
19521;SDS011;9905;52.126;5.596;2022-08-25T07:08:43;4.80;;;4.28;;
19521;SDS011;9905;52.126;5.596;2022-08-25T07:11:10;4.13;;;3.83;;
19521;SDS011;9905;52.126;5.596;2022-08-25T07:13:38;3.95;;;3.60;;
19521;SDS011;9905;52.126;5.596;2022-08-25T07:16:05;5.10;;;3.88;;
19521;SDS011;9905;52.126;5.596;2022-08-25T07:18:36;4.30;;;4.07;;
19521;SDS011;9905;52.126;5.596;2022-08-25T07:21:03;4.53;;;3.85;;
19521;SDS011;9905;52.126;5.596;2022-08-25T07:23:30;4.63;;;3.65;;
19521;SDS011;9905;52.126;5.596;2022-08-25T07:25:56;4.07;;;3.40;;
19521;SDS011;9905;52.126;5.596;2022-08-25T07:28:33;5.20;;;4.13;;
19521;SDS011;9905;52.126;5.596;2022-08-25T07:31:00;6.28;;;3.78;;
19521;SDS011;9905;52.126;5.596;2022-08-25T07:33:26;6.95;;;3.72;;
19521;SDS011;9905;52.126;5.596;2022-08-25T07:35:54;4.18;;;3.80;;
19521;SDS011;9905;52.126;5.596;2022-08-25T07:38:21;4.85;;;3.65;;
19521;SDS011;9905;52.126;5.596;2022-08-25T07:40:48;3.90;;;3.60;;
19521;SDS011;9905;52.126;5.596;2022-08-25T07:43:19;5.03;;;3.70;;
19521;SDS011;9905;52.126;5.596;2022-08-25T07:45:47;8.27;;;3.50;;
19521;SDS011;9905;52.126;5.596;2022-08-25T07:48:14;5.88;;;3.40;;
19521;SDS011;9905;52.126;5.596;2022-08-25T07:50:43;3.63;;;3.33;;
19521;SDS011;9905;52.126;5.596;2022-08-25T07:53:13;4.13;;;3.47;;
19521;SDS011;9905;52.126;5.596;2022-08-25T07:55:41;4.13;;;3.40;;
19521;SDS011;9905;52.126;5.596;2022-08-25T07:58:08;5.68;;;3.53;;
19521;SDS011;9905;52.126;5.596;2022-08-25T08:00:35;4.57;;;3.05;;
19521;SDS011;9905;52.126;5.596;2022-08-25T08:03:04;7.07;;;3.67;;
19521;SDS011;9905;52.126;5.596;2022-08-25T08:05:32;5.22;;;3.28;;
19521;SDS011;9905;52.126;5.596;2022-08-25T08:07:59;3.85;;;3.40;;
19521;SDS011;9905;52.126;5.596;2022-08-25T08:10:28;3.67;;;3.20;;
19521;SDS011;9905;52.126;5.596;2022-08-25T08:12:55;4.45;;;3.20;;
19521;SDS011;9905;52.126;5.596;2022-08-25T08:15:22;3.35;;;3.05;;
19521;SDS011;9905;52.126;5.596;2022-08-25T08:17:48;8.18;;;3.28;;
19521;SDS011;9905;52.126;5.596;2022-08-25T08:20:15;6.07;;;3.30;;
19521;SDS011;9905;52.126;5.596;2022-08-25T08:22:42;4.93;;;3.63;;
19521;SDS011;9905;52.126;5.596;2022-08-25T08:25:10;3.38;;;3.10;;
19521;SDS011;9905;52.126;5.596;2022-08-25T08:27:38;4.05;;;3.22;;
19521;SDS011;9905;52.126;5.596;2022-08-25T08:30:07;4.32;;;3.13;;
19521;SDS011;9905;52.126;5.596;2022-08-25T08:32:34;8.48;;;3.50;;
19521;SDS011;9905;52.126;5.596;2022-08-25T08:35:01;3.22;;;2.92;;
19521;SDS011;9905;52.126;5.596;2022-08-25T08:37:29;3.40;;;3.15;;
19521;SDS011;9905;52.126;5.596;2022-08-25T08:39:56;4.07;;;2.90;;
19521;SDS011;9905;52.126;5.596;2022-08-25T08:42:30;3.60;;;3.30;;
19521;SDS011;9905;52.126;5.596;2022-08-25T08:45:30;4.22;;;3.10;;
19521;SDS011;9905;52.126;5.596;2022-08-25T08:48:02;5.45;;;2.85;;
19521;SDS011;9905;52.126;5.596;2022-08-25T08:50:55;3.88;;;3.10;;
19521;SDS011;9905;52.126;5.596;2022-08-25T08:53:31;4.45;;;2.92;;
19521;SDS011;9905;52.126;5.596;2022-08-25T08:56:08;3.88;;;2.70;;
19521;SDS011;9905;52.126;5.596;2022-08-25T08:58:40;3.10;;;2.72;;
19521;SDS011;9905;52.126;5.596;2022-08-25T09:01:11;3.50;;;3.05;;
19521;SDS011;9905;52.126;5.596;2022-08-25T09:03:48;5.07;;;3.20;;
19521;SDS011;9905;52.126;5.596;2022-08-25T09:06:19;3.58;;;3.05;;
19521;SDS011;9905;52.126;5.596;2022-08-25T09:08:50;3.42;;;3.13;;
19521;SDS011;9905;52.126;5.596;2022-08-25T09:11:21;2.72;;;2.60;;
19521;SDS011;9905;52.126;5.596;2022-08-25T09:14:00;3.85;;;3.10;;
19521;SDS011;9905;52.126;5.596;2022-08-25T09:16:36;2.67;;;2.47;;
19521;SDS011;9905;52.126;5.596;2022-08-25T09:19:24;5.40;;;3.00;;
19521;SDS011;9905;52.126;5.596;2022-08-25T09:22:14;3.53;;;3.08;;
19521;SDS011;9905;52.126;5.596;2022-08-25T09:24:53;3.25;;;3.05;;
19521;SDS011;9905;52.126;5.596;2022-08-25T09:27:30;3.03;;;2.80;;
19521;SDS011;9905;52.126;5.596;2022-08-25T09:30:04;3.05;;;2.85;;
19521;SDS011;9905;52.126;5.596;2022-08-25T09:32:36;2.85;;;2.70;;
19521;SDS011;9905;52.126;5.596;2022-08-25T09:35:07;4.80;;;2.78;;
19521;SDS011;9905;52.126;5.596;2022-08-25T09:37:40;3.17;;;2.97;;
19521;SDS011;9905;52.126;5.596;2022-08-25T09:40:07;4.10;;;2.50;;
19521;SDS011;9905;52.126;5.596;2022-08-25T09:42:45;2.75;;;2.28;;
19521;SDS011;9905;52.126;5.596;2022-08-25T09:45:14;4.70;;;2.53;;
19521;SDS011;9905;52.126;5.596;2022-08-25T09:47:43;2.63;;;2.42;;
19521;SDS011;9905;52.126;5.596;2022-08-25T09:50:13;2.47;;;2.28;;
19521;SDS011;9905;52.126;5.596;2022-08-25T09:52:42;2.70;;;2.50;;
19521;SDS011;9905;52.126;5.596;2022-08-25T09:55:26;2.72;;;2.45;;
19521;SDS011;9905;52.126;5.596;2022-08-25T09:57:56;2.35;;;2.25;;
19521;SDS011;9905;52.126;5.596;2022-08-25T10:00:25;3.55;;;2.38;;
19521;SDS011;9905;52.126;5.596;2022-08-25T10:03:05;3.95;;;2.42;;
19521;SDS011;9905;52.126;5.596;2022-08-25T10:05:38;5.05;;;2.67;;
19521;SDS011;9905;52.126;5.596;2022-08-25T10:08:25;2.53;;;2.38;;
19521;SDS011;9905;52.126;5.596;2022-08-25T10:10:56;3.33;;;2.30;;
19521;SDS011;9905;52.126;5.596;2022-08-25T10:13:32;2.83;;;2.25;;
19521;SDS011;9905;52.126;5.596;2022-08-25T10:16:07;3.60;;;2.15;;
19521;SDS011;9905;52.126;5.596;2022-08-25T10:18:37;2.67;;;2.30;;
19521;SDS011;9905;52.126;5.596;2022-08-25T10:21:09;2.10;;;1.90;;
19521;SDS011;9905;52.126;5.596;2022-08-25T10:23:39;3.08;;;2.30;;
19521;SDS011;9905;52.126;5.596;2022-08-25T10:26:10;2.40;;;2.20;;
19521;SDS011;9905;52.126;5.596;2022-08-25T10:28:43;2.00;;;1.90;;
19521;SDS011;9905;52.126;5.596;2022-08-25T10:31:23;4.13;;;2.22;;
19521;SDS011;9905;52.126;5.596;2022-08-25T10:33:56;6.47;;;2.55;;
19521;SDS011;9905;52.126;5.596;2022-08-25T10:36:39;2.33;;;2.05;;
19521;SDS011;9905;52.126;5.596;2022-08-25T10:39:15;2.20;;;2.00;;
19521;SDS011;9905;52.126;5.596;2022-08-25T10:41:52;3.85;;;2.50;;
19521;SDS011;9905;52.126;5.596;2022-08-25T10:44:29;2.95;;;2.28;;
19521;SDS011;9905;52.126;5.596;2022-08-25T10:50:19;2.10;;;2.00;;
19521;SDS011;9905;52.126;5.596;2022-08-25T10:52:54;2.35;;;1.92;;
19521;SDS011;9905;52.126;5.596;2022-08-25T10:55:32;2.65;;;2.22;;
19521;SDS011;9905;52.126;5.596;2022-08-25T10:58:10;3.92;;;2.30;;
19521;SDS011;9905;52.126;5.596;2022-08-25T11:00:50;2.72;;;1.80;;
19521;SDS011;9905;52.126;5.596;2022-08-25T11:03:28;4.55;;;1.80;;
19521;SDS011;9905;52.126;5.596;2022-08-25T11:06:04;3.83;;;2.13;;
19521;SDS011;9905;52.126;5.596;2022-08-25T11:08:36;2.15;;;2.00;;
19521;SDS011;9905;52.126;5.596;2022-08-25T11:11:09;2.05;;;1.90;;
19521;SDS011;9905;52.126;5.596;2022-08-25T11:13:40;2.35;;;1.90;;
19521;SDS011;9905;52.126;5.596;2022-08-25T11:16:11;2.20;;;2.10;;
19521;SDS011;9905;52.126;5.596;2022-08-25T11:18:45;2.80;;;2.00;;
19521;SDS011;9905;52.126;5.596;2022-08-25T11:21:17;4.43;;;1.92;;
19521;SDS011;9905;52.126;5.596;2022-08-25T11:23:49;2.17;;;1.98;;
19521;SDS011;9905;52.126;5.596;2022-08-25T11:26:22;2.95;;;1.90;;
19521;SDS011;9905;52.126;5.596;2022-08-25T11:28:59;1.92;;;1.83;;
19521;SDS011;9905;52.126;5.596;2022-08-25T11:31:27;3.55;;;1.90;;
19521;SDS011;9905;52.126;5.596;2022-08-25T11:33:57;2.28;;;1.65;;
19521;SDS011;9905;52.126;5.596;2022-08-25T11:36:25;2.20;;;2.10;;
19521;SDS011;9905;52.126;5.596;2022-08-25T11:39:05;3.25;;;2.00;;
19521;SDS011;9905;52.126;5.596;2022-08-25T11:41:40;2.17;;;2.05;;
19521;SDS011;9905;52.126;5.596;2022-08-25T11:44:28;2.47;;;2.28;;
19521;SDS011;9905;52.126;5.596;2022-08-25T11:47:14;2.22;;;2.13;;
19521;SDS011;9905;52.126;5.596;2022-08-25T11:49:58;4.38;;;2.05;;
19521;SDS011;9905;52.126;5.596;2022-08-25T11:52:37;3.03;;;2.00;;
19521;SDS011;9905;52.126;5.596;2022-08-25T11:55:10;2.28;;;2.00;;
19521;SDS011;9905;52.126;5.596;2022-08-25T11:57:39;2.85;;;1.80;;
19521;SDS011;9905;52.126;5.596;2022-08-25T12:00:09;3.70;;;2.20;;
19521;SDS011;9905;52.126;5.596;2022-08-25T12:02:39;3.63;;;2.13;;
19521;SDS011;9905;52.126;5.596;2022-08-25T12:05:11;2.03;;;1.90;;
19521;SDS011;9905;52.126;5.596;2022-08-25T12:08:16;2.53;;;1.90;;
19521;SDS011;9905;52.126;5.596;2022-08-25T12:11:41;2.25;;;2.15;;
19521;SDS011;9905;52.126;5.596;2022-08-25T12:14:14;2.08;;;1.90;;
19521;SDS011;9905;52.126;5.596;2022-08-25T12:17:04;2.42;;;2.08;;
19521;SDS011;9905;52.126;5.596;2022-08-25T12:19:46;2.25;;;2.15;;
19521;SDS011;9905;52.126;5.596;2022-08-25T12:28:23;5.10;;;1.88;;
19521;SDS011;9905;52.126;5.596;2022-08-25T12:31:21;4.85;;;2.00;;
19521;SDS011;9905;52.126;5.596;2022-08-25T12:34:01;2.30;;;2.20;;
19521;SDS011;9905;52.126;5.596;2022-08-25T12:36:53;2.80;;;1.95;;
19521;SDS011;9905;52.126;5.596;2022-08-25T12:39:27;2.83;;;2.15;;
19521;SDS011;9905;52.126;5.596;2022-08-25T12:41:56;2.10;;;2.00;;
19521;SDS011;9905;52.126;5.596;2022-08-25T12:44:40;5.25;;;2.10;;
19521;SDS011;9905;52.126;5.596;2022-08-25T12:52:58;2.53;;;1.80;;
19521;SDS011;9905;52.126;5.596;2022-08-25T12:55:34;3.45;;;2.00;;
19521;SDS011;9905;52.126;5.596;2022-08-25T12:58:05;2.10;;;2.00;;
19521;SDS011;9905;52.126;5.596;2022-08-25T13:00:34;2.05;;;1.90;;
19521;SDS011;9905;52.126;5.596;2022-08-25T13:03:19;3.00;;;2.80;;
19521;SDS011;9905;52.126;5.596;2022-08-25T13:06:12;4.03;;;2.20;;
19521;SDS011;9905;52.126;5.596;2022-08-25T13:08:57;2.20;;;2.00;;
19521;SDS011;9905;52.126;5.596;2022-08-25T13:11:48;2.20;;;2.10;;
19521;SDS011;9905;52.126;5.596;2022-08-25T13:14:20;2.10;;;1.98;;
19521;SDS011;9905;52.126;5.596;2022-08-25T13:16:52;2.03;;;1.70;;
19521;SDS011;9905;52.126;5.596;2022-08-25T13:19:20;3.47;;;2.03;;
19521;SDS011;9905;52.126;5.596;2022-08-25T13:21:47;3.95;;;2.22;;
19521;SDS011;9905;52.126;5.596;2022-08-25T13:24:16;2.03;;;1.92;;
19521;SDS011;9905;52.126;5.596;2022-08-25T13:26:49;2.05;;;1.95;;
19521;SDS011;9905;52.126;5.596;2022-08-25T13:29:19;2.20;;;2.10;;
19521;SDS011;9905;52.126;5.596;2022-08-25T13:31:52;2.10;;;1.85;;
19521;SDS011;9905;52.126;5.596;2022-08-25T13:34:22;3.05;;;2.35;;
19521;SDS011;9905;52.126;5.596;2022-08-25T13:36:51;1.85;;;1.75;;
19521;SDS011;9905;52.126;5.596;2022-08-25T13:39:36;2.13;;;1.92;;
19521;SDS011;9905;52.126;5.596;2022-08-25T13:42:06;2.08;;;1.98;;
19521;SDS011;9905;52.126;5.596;2022-08-25T13:44:38;2.17;;;2.00;;
19521;SDS011;9905;52.126;5.596;2022-08-25T13:47:07;2.42;;;1.90;;
19521;SDS011;9905;52.126;5.596;2022-08-25T13:49:35;3.50;;;1.88;;
19521;SDS011;9905;52.126;5.596;2022-08-25T13:52:02;2.78;;;1.98;;
19521;SDS011;9905;52.126;5.596;2022-08-25T13:54:36;2.53;;;2.05;;
19521;SDS011;9905;52.126;5.596;2022-08-25T13:57:10;2.10;;;1.95;;
19521;SDS011;9905;52.126;5.596;2022-08-25T13:59:40;4.80;;;2.28;;
19521;SDS011;9905;52.126;5.596;2022-08-25T14:02:09;1.85;;;1.75;;
19521;SDS011;9905;52.126;5.596;2022-08-25T14:04:45;2.15;;;2.05;;
19521;SDS011;9905;52.126;5.596;2022-08-25T14:07:22;2.40;;;2.20;;
19521;SDS011;9905;52.126;5.596;2022-08-25T14:09:53;2.00;;;1.70;;
19521;SDS011;9905;52.126;5.596;2022-08-25T14:12:27;2.13;;;2.00;;
19521;SDS011;9905;52.126;5.596;2022-08-25T14:14:57;1.80;;;1.70;;
19521;SDS011;9905;52.126;5.596;2022-08-25T14:17:25;3.03;;;1.80;;
19521;SDS011;9905;52.126;5.596;2022-08-25T14:19:52;2.22;;;1.77;;
19521;SDS011;9905;52.126;5.596;2022-08-25T14:22:19;3.22;;;1.77;;
19521;SDS011;9905;52.126;5.596;2022-08-25T14:24:46;3.90;;;2.20;;
19521;SDS011;9905;52.126;5.596;2022-08-25T14:27:13;2.25;;;2.00;;
19521;SDS011;9905;52.126;5.596;2022-08-25T14:29:41;4.55;;;2.10;;
19521;SDS011;9905;52.126;5.596;2022-08-25T14:32:08;3.17;;;2.00;;
19521;SDS011;9905;52.126;5.596;2022-08-25T14:34:35;2.17;;;2.00;;
19521;SDS011;9905;52.126;5.596;2022-08-25T14:37:04;2.65;;;1.85;;
19521;SDS011;9905;52.126;5.596;2022-08-25T14:39:34;3.05;;;2.08;;
19521;SDS011;9905;52.126;5.596;2022-08-25T14:42:01;3.53;;;2.08;;
19521;SDS011;9905;52.126;5.596;2022-08-25T14:44:28;4.75;;;2.17;;
19521;SDS011;9905;52.126;5.596;2022-08-25T14:46:56;2.13;;;2.03;;
19521;SDS011;9905;52.126;5.596;2022-08-25T14:49:23;1.70;;;1.60;;
19521;SDS011;9905;52.126;5.596;2022-08-25T14:51:54;3.42;;;2.10;;
19521;SDS011;9905;52.126;5.596;2022-08-25T14:54:24;3.00;;;2.20;;
19521;SDS011;9905;52.126;5.596;2022-08-25T14:56:51;2.33;;;2.13;;
19521;SDS011;9905;52.126;5.596;2022-08-25T14:59:20;2.20;;;1.83;;
19521;SDS011;9905;52.126;5.596;2022-08-25T15:01:47;2.05;;;1.95;;
19521;SDS011;9905;52.126;5.596;2022-08-25T15:04:15;2.00;;;1.90;;
19521;SDS011;9905;52.126;5.596;2022-08-25T15:06:44;2.03;;;1.92;;
19521;SDS011;9905;52.126;5.596;2022-08-25T15:09:12;1.73;;;1.63;;
19521;SDS011;9905;52.126;5.596;2022-08-25T15:11:41;2.47;;;1.70;;
19521;SDS011;9905;52.126;5.596;2022-08-25T15:14:09;2.55;;;1.80;;
19521;SDS011;9905;52.126;5.596;2022-08-25T15:16:37;2.00;;;1.90;;
19521;SDS011;9905;52.126;5.596;2022-08-25T15:19:06;2.10;;;2.00;;
19521;SDS011;9905;52.126;5.596;2022-08-25T15:21:36;3.17;;;1.95;;
19521;SDS011;9905;52.126;5.596;2022-08-25T15:24:04;4.30;;;1.90;;
19521;SDS011;9905;52.126;5.596;2022-08-25T15:26:31;2.53;;;2.10;;
19521;SDS011;9905;52.126;5.596;2022-08-25T15:28:59;2.00;;;1.80;;
19521;SDS011;9905;52.126;5.596;2022-08-25T15:31:25;3.00;;;2.22;;
19521;SDS011;9905;52.126;5.596;2022-08-25T15:33:52;2.65;;;1.73;;
19521;SDS011;9905;52.126;5.596;2022-08-25T15:36:20;1.80;;;1.70;;